sensor_id;sensor_type;location;lat;lon;timestamp;pressure;altitude;pressure_sealevel;temperature;humidity
15007;BME280;7599;50.748;13.142;2023-03-25T00:00:18;94722.22;;;12.45;65.95
15007;BME280;7599;50.748;13.142;2023-03-25T00:03:21;94723.78;;;12.46;66.23
15007;BME280;7599;50.748;13.142;2023-03-25T00:06:24;94713.50;;;12.44;65.99
15007;BME280;7599;50.748;13.142;2023-03-25T00:09:27;94731.72;;;12.46;65.88
15007;BME280;7599;50.748;13.142;2023-03-25T00:12:30;94718.78;;;12.44;65.99
15007;BME280;7599;50.748;13.142;2023-03-25T00:15:34;94713.50;;;12.44;65.63
15007;BME280;7599;50.748;13.142;2023-03-25T00:18:36;94711.66;;;12.45;66.03
15007;BME280;7599;50.748;13.142;2023-03-25T00:21:40;94715.34;;;12.44;66.15
15007;BME280;7599;50.748;13.142;2023-03-25T00:24:45;94708.22;;;12.44;65.92
15007;BME280;7599;50.748;13.142;2023-03-25T00:27:47;94701.09;;;12.45;65.79
15007;BME280;7599;50.748;13.142;2023-03-25T00:30:53;94702.97;;;12.44;65.41
15007;BME280;7599;50.748;13.142;2023-03-25T00:33:56;94693.19;;;12.45;65.92
15007;BME280;7599;50.748;13.142;2023-03-25T00:37:01;94700.31;;;12.44;65.82
15007;BME280;7599;50.748;13.142;2023-03-25T00:40:04;94706.38;;;12.45;65.83
15007;BME280;7599;50.748;13.142;2023-03-25T00:43:09;94710.88;;;12.44;65.60
15007;BME280;7599;50.748;13.142;2023-03-25T00:46:14;94704.78;;;12.44;65.95
15007;BME280;7599;50.748;13.142;2023-03-25T00:49:16;94707.44;;;12.44;65.84
15007;BME280;7599;50.748;13.142;2023-03-25T00:52:19;94705.06;;;12.42;65.70
15007;BME280;7599;50.748;13.142;2023-03-25T00:55:23;94707.44;;;12.44;65.81
15007;BME280;7599;50.748;13.142;2023-03-25T00:58:26;94704.78;;;12.44;65.31
15007;BME280;7599;50.748;13.142;2023-03-25T01:01:30;94710.06;;;12.44;65.75
15007;BME280;7599;50.748;13.142;2023-03-25T01:04:34;94705.84;;;12.43;65.78
15007;BME280;7599;50.748;13.142;2023-03-25T01:07:41;94700.56;;;12.43;65.72
15007;BME280;7599;50.748;13.142;2023-03-25T01:10:43;94672.63;;;12.42;65.37
15007;BME280;7599;50.748;13.142;2023-03-25T01:13:46;94677.13;;;12.41;65.74
15007;BME280;7599;50.748;13.142;2023-03-25T01:16:50;94669.97;;;12.42;65.83
15007;BME280;7599;50.748;13.142;2023-03-25T01:19:52;94661.00;;;12.43;65.81
15007;BME280;7599;50.748;13.142;2023-03-25T01:22:55;94654.16;;;12.42;65.65
15007;BME280;7599;50.748;13.142;2023-03-25T01:25:58;94643.59;;;12.42;65.80
15007;BME280;7599;50.748;13.142;2023-03-25T01:29:01;94646.25;;;12.42;65.76
15007;BME280;7599;50.748;13.142;2023-03-25T01:32:05;94637.28;;;12.43;65.45
15007;BME280;7599;50.748;13.142;2023-03-25T01:35:08;94640.72;;;12.43;65.70
15007;BME280;7599;50.748;13.142;2023-03-25T01:38:12;94633.06;;;12.42;65.69
15007;BME280;7599;50.748;13.142;2023-03-25T01:41:15;94630.41;;;12.42;65.83
15007;BME280;7599;50.748;13.142;2023-03-25T01:48:03;94627.03;;;12.41;65.49
15007;BME280;7599;50.748;13.142;2023-03-25T01:51:11;94640.22;;;12.41;65.35
15007;BME280;7599;50.748;13.142;2023-03-25T01:54:15;94644.69;;;12.41;65.53
15007;BME280;7599;50.748;13.142;2023-03-25T01:57:20;94634.13;;;12.41;65.44
15007;BME280;7599;50.748;13.142;2023-03-25T02:00:23;94640.22;;;12.41;65.69
15007;BME280;7599;50.748;13.142;2023-03-25T02:03:29;94630.72;;;12.40;65.44
15007;BME280;7599;50.748;13.142;2023-03-25T02:06:42;94624.63;;;12.40;65.65
15007;BME280;7599;50.748;13.142;2023-03-25T02:09:45;94615.69;;;12.41;65.47
15007;BME280;7599;50.748;13.142;2023-03-25T02:12:47;94614.09;;;12.40;65.43
15007;BME280;7599;50.748;13.142;2023-03-25T02:16:02;94614.09;;;12.40;65.80
15007;BME280;7599;50.748;13.142;2023-03-25T02:19:40;94611.47;;;12.40;65.66
15007;BME280;7599;50.748;13.142;2023-03-25T02:23:11;94610.66;;;12.39;65.65
15007;BME280;7599;50.748;13.142;2023-03-25T02:26:43;94596.69;;;12.39;65.51
15007;BME280;7599;50.748;13.142;2023-03-25T02:30:08;94595.63;;;12.40;65.42
15007;BME280;7599;50.748;13.142;2023-03-25T02:33:36;94599.31;;;12.39;65.60
15007;BME280;7599;50.748;13.142;2023-03-25T02:36:59;94602.50;;;12.41;65.81
15007;BME280;7599;50.748;13.142;2023-03-25T02:40:14;94604.59;;;12.39;65.49
15007;BME280;7599;50.748;13.142;2023-03-25T02:43:22;94600.91;;;12.40;65.71
15007;BME280;7599;50.748;13.142;2023-03-25T02:46:28;94585.34;;;12.38;65.18
15007;BME280;7599;50.748;13.142;2023-03-25T02:49:35;94581.66;;;12.39;65.41
15007;BME280;7599;50.748;13.142;2023-03-25T02:52:43;94571.09;;;12.39;65.50
15007;BME280;7599;50.748;13.142;2023-03-25T02:55:51;94567.66;;;12.39;65.52
15007;BME280;7599;50.748;13.142;2023-03-25T02:58:58;94579.28;;;12.38;65.51
15007;BME280;7599;50.748;13.142;2023-03-25T03:02:04;94582.72;;;12.38;65.41
15007;BME280;7599;50.748;13.142;2023-03-25T03:05:21;94589.81;;;12.38;65.40
15007;BME280;7599;50.748;13.142;2023-03-25T03:08:33;94575.84;;;12.37;65.43
15007;BME280;7599;50.748;13.142;2023-03-25T03:11:47;94566.09;;;12.38;65.69
15007;BME280;7599;50.748;13.142;2023-03-25T03:15:05;94580.34;;;12.36;65.37
15007;BME280;7599;50.748;13.142;2023-03-25T03:18:17;94569.78;;;12.36;65.40
15007;BME280;7599;50.748;13.142;2023-03-25T03:21:32;94571.09;;;12.39;65.28
15007;BME280;7599;50.748;13.142;2023-03-25T03:24:39;94566.09;;;12.38;65.47
15007;BME280;7599;50.748;13.142;2023-03-25T03:27:47;94566.88;;;12.38;65.45
15007;BME280;7599;50.748;13.142;2023-03-25T03:30:56;94580.84;;;12.39;65.50
15007;BME280;7599;50.748;13.142;2023-03-25T03:34:03;94568.72;;;12.38;65.40
15007;BME280;7599;50.748;13.142;2023-03-25T03:37:12;94576.63;;;12.38;65.48
15007;BME280;7599;50.748;13.142;2023-03-25T03:40:18;94570.84;;;12.35;65.31
15007;BME280;7599;50.748;13.142;2023-03-25T03:43:26;94572.41;;;12.36;65.31
15007;BME280;7599;50.748;13.142;2023-03-25T03:46:34;94586.66;;;12.35;65.21
15007;BME280;7599;50.748;13.142;2023-03-25T03:49:41;94595.34;;;12.36;64.94
15007;BME280;7599;50.748;13.142;2023-03-25T03:52:50;94601.44;;;12.36;65.25
15007;BME280;7599;50.748;13.142;2023-03-25T03:55:58;94596.16;;;12.36;65.35
15007;BME280;7599;50.748;13.142;2023-03-25T03:59:10;94590.34;;;12.34;65.04
15007;BME280;7599;50.748;13.142;2023-03-25T04:02:21;94587.72;;;12.34;64.82
15007;BME280;7599;50.748;13.142;2023-03-25T04:05:28;94576.38;;;12.34;64.93
15007;BME280;7599;50.748;13.142;2023-03-25T04:08:31;94587.72;;;12.34;65.00
15007;BME280;7599;50.748;13.142;2023-03-25T04:11:40;94575.56;;;12.33;64.70
15007;BME280;7599;50.748;13.142;2023-03-25T04:14:46;94586.13;;;12.33;64.80
15007;BME280;7599;50.748;13.142;2023-03-25T04:17:48;94599.31;;;12.33;65.11
15007;BME280;7599;50.748;13.142;2023-03-25T04:20:51;94594.81;;;12.34;65.38
15007;BME280;7599;50.748;13.142;2023-03-25T04:23:54;94585.34;;;12.33;64.94
15007;BME280;7599;50.748;13.142;2023-03-25T04:26:56;94607.22;;;12.33;64.84
15007;BME280;7599;50.748;13.142;2023-03-25T04:30:01;94610.91;;;12.32;64.95
15007;BME280;7599;50.748;13.142;2023-03-25T04:33:05;94608.00;;;12.34;65.02
15007;BME280;7599;50.748;13.142;2023-03-25T04:36:09;94610.91;;;12.32;65.12
15007;BME280;7599;50.748;13.142;2023-03-25T04:39:12;94618.28;;;12.30;65.05
15007;BME280;7599;50.748;13.142;2023-03-25T04:42:18;94625.44;;;12.30;64.92
15007;BME280;7599;50.748;13.142;2023-03-25T04:45:22;94620.94;;;12.30;64.70
15007;BME280;7599;50.748;13.142;2023-03-25T04:48:27;94616.97;;;12.33;64.90
15007;BME280;7599;50.748;13.142;2023-03-25T04:51:31;94634.38;;;12.34;65.38
15007;BME280;7599;50.748;13.142;2023-03-25T04:54:34;94628.84;;;12.30;64.92
15007;BME280;7599;50.748;13.142;2023-03-25T04:57:38;94622.81;;;12.30;64.65
15007;BME280;7599;50.748;13.142;2023-03-25T05:00:43;94628.59;;;12.32;64.82
15007;BME280;7599;50.748;13.142;2023-03-25T05:03:47;94616.44;;;12.31;65.00
15007;BME280;7599;50.748;13.142;2023-03-25T05:06:50;94602.22;;;12.32;64.75
15007;BME280;7599;50.748;13.142;2023-03-25T05:09:53;94604.06;;;12.31;65.38
15007;BME280;7599;50.748;13.142;2023-03-25T05:12:58;94599.84;;;12.30;65.32
15007;BME280;7599;50.748;13.142;2023-03-25T05:16:03;94613.81;;;12.31;65.08
15007;BME280;7599;50.748;13.142;2023-03-25T05:19:06;94616.19;;;12.32;65.09
15007;BME280;7599;50.748;13.142;2023-03-25T05:22:11;94616.44;;;12.31;64.73
15007;BME280;7599;50.748;13.142;2023-03-25T05:25:15;94619.09;;;12.31;65.20
15007;BME280;7599;50.748;13.142;2023-03-25T05:28:18;94627.28;;;12.29;64.77
15007;BME280;7599;50.748;13.142;2023-03-25T05:31:22;94632.56;;;12.29;64.54
15007;BME280;7599;50.748;13.142;2023-03-25T05:34:25;94622.81;;;12.30;64.58
15007;BME280;7599;50.748;13.142;2023-03-25T05:37:30;94616.44;;;12.31;65.10
15007;BME280;7599;50.748;13.142;2023-03-25T05:40:33;94624.88;;;12.33;64.90
15007;BME280;7599;50.748;13.142;2023-03-25T05:43:36;94633.84;;;12.32;64.71
15007;BME280;7599;50.748;13.142;2023-03-25T05:46:41;94633.59;;;12.33;65.08
15007;BME280;7599;50.748;13.142;2023-03-25T05:49:43;94636.50;;;12.32;64.80
15007;BME280;7599;50.748;13.142;2023-03-25T05:52:47;94633.84;;;12.32;64.96
15007;BME280;7599;50.748;13.142;2023-03-25T05:55:52;94628.06;;;12.30;64.63
15007;BME280;7599;50.748;13.142;2023-03-25T05:58:55;94614.09;;;12.29;64.76
15007;BME280;7599;50.748;13.142;2023-03-25T06:01:59;94628.06;;;12.30;64.93
15007;BME280;7599;50.748;13.142;2023-03-25T06:05:03;94616.75;;;12.29;64.86
15007;BME280;7599;50.748;13.142;2023-03-25T06:08:05;94635.19;;;12.29;64.71
15007;BME280;7599;50.748;13.142;2023-03-25T06:11:09;94630.19;;;12.28;64.53
15007;BME280;7599;50.748;13.142;2023-03-25T06:14:14;94623.84;;;12.29;64.76
15007;BME280;7599;50.748;13.142;2023-03-25T06:17:19;94635.19;;;12.29;64.33
15007;BME280;7599;50.748;13.142;2023-03-25T06:20:22;94625.69;;;12.28;64.62
15007;BME280;7599;50.748;13.142;2023-03-25T06:23:25;94627.53;;;12.28;64.74
15007;BME280;7599;50.748;13.142;2023-03-25T06:26:28;94633.06;;;12.31;65.05
15007;BME280;7599;50.748;13.142;2023-03-25T06:29:33;94626.72;;;12.32;65.09
15007;BME280;7599;50.748;13.142;2023-03-25T06:32:38;94633.06;;;12.31;64.95
15007;BME280;7599;50.748;13.142;2023-03-25T06:35:41;94628.06;;;12.30;64.87
15007;BME280;7599;50.748;13.142;2023-03-25T06:38:45;94646.78;;;12.28;65.08
15007;BME280;7599;50.748;13.142;2023-03-25T06:41:48;94645.22;;;12.27;64.59
15007;BME280;7599;50.748;13.142;2023-03-25T06:44:51;94638.34;;;12.26;64.85
15007;BME280;7599;50.748;13.142;2023-03-25T06:47:55;94642.31;;;12.29;64.98
15007;BME280;7599;50.748;13.142;2023-03-25T06:50:57;94649.19;;;12.30;64.99
15007;BME280;7599;50.748;13.142;2023-03-25T06:54:00;94643.91;;;12.30;64.92
15007;BME280;7599;50.748;13.142;2023-03-25T06:57:02;94642.03;;;12.30;64.91
15007;BME280;7599;50.748;13.142;2023-03-25T07:00:06;94646.53;;;12.30;64.76
15007;BME280;7599;50.748;13.142;2023-03-25T07:03:11;94658.94;;;12.29;64.82
15007;BME280;7599;50.748;13.142;2023-03-25T07:06:16;94651.53;;;12.31;64.41
15007;BME280;7599;50.748;13.142;2023-03-25T07:09:18;94663.13;;;12.30;64.74
15007;BME280;7599;50.748;13.142;2023-03-25T07:12:22;94655.22;;;12.30;65.00
15007;BME280;7599;50.748;13.142;2023-03-25T07:15:24;94649.94;;;12.30;64.84
15007;BME280;7599;50.748;13.142;2023-03-25T07:18:29;94654.44;;;12.30;64.74
15007;BME280;7599;50.748;13.142;2023-03-25T07:21:31;94656.56;;;12.28;64.50
15007;BME280;7599;50.748;13.142;2023-03-25T07:24:34;94658.94;;;12.29;65.13
15007;BME280;7599;50.748;13.142;2023-03-25T07:27:36;94658.41;;;12.27;65.01
15007;BME280;7599;50.748;13.142;2023-03-25T07:30:39;94655.75;;;12.27;64.95
15007;BME280;7599;50.748;13.142;2023-03-25T07:33:43;94665.25;;;12.28;65.17
15007;BME280;7599;50.748;13.142;2023-03-25T07:36:45;94651.28;;;12.28;65.24
15007;BME280;7599;50.748;13.142;2023-03-25T07:39:48;94665.25;;;12.28;64.89
15007;BME280;7599;50.748;13.142;2023-03-25T07:42:51;94673.16;;;12.28;65.03
15007;BME280;7599;50.748;13.142;2023-03-25T07:45:53;94669.75;;;12.28;64.83
15007;BME280;7599;50.748;13.142;2023-03-25T07:48:57;94671.59;;;12.27;64.70
15007;BME280;7599;50.748;13.142;2023-03-25T07:52:00;94668.69;;;12.29;64.87
15007;BME280;7599;50.748;13.142;2023-03-25T07:55:03;94682.91;;;12.28;64.88
15007;BME280;7599;50.748;13.142;2023-03-25T07:58:05;94682.66;;;12.29;65.06
15007;BME280;7599;50.748;13.142;2023-03-25T08:01:08;94695.84;;;12.29;65.02
15007;BME280;7599;50.748;13.142;2023-03-25T08:04:12;94680.53;;;12.26;64.69
15007;BME280;7599;50.748;13.142;2023-03-25T08:07:15;94682.38;;;12.26;64.80
15007;BME280;7599;50.748;13.142;2023-03-25T08:10:18;94683.19;;;12.26;64.69
15007;BME280;7599;50.748;13.142;2023-03-25T08:13:21;94683.97;;;12.27;64.41
15007;BME280;7599;50.748;13.142;2023-03-25T08:16:24;94687.66;;;12.26;64.53
15007;BME280;7599;50.748;13.142;2023-03-25T08:19:28;94684.22;;;12.25;64.83
15007;BME280;7599;50.748;13.142;2023-03-25T08:22:32;94700.06;;;12.25;64.89
15007;BME280;7599;50.748;13.142;2023-03-25T08:25:35;94702.69;;;12.25;64.42
15007;BME280;7599;50.748;13.142;2023-03-25T08:28:38;94693.97;;;12.25;64.43
15007;BME280;7599;50.748;13.142;2023-03-25T08:31:40;94693.97;;;12.25;64.75
15007;BME280;7599;50.748;13.142;2023-03-25T08:34:44;94707.44;;;12.23;64.92
15007;BME280;7599;50.748;13.142;2023-03-25T08:37:49;94704.78;;;12.23;65.04
15007;BME280;7599;50.748;13.142;2023-03-25T08:40:52;94702.16;;;12.23;64.46
15007;BME280;7599;50.748;13.142;2023-03-25T08:43:54;94703.75;;;12.24;64.85
15007;BME280;7599;50.748;13.142;2023-03-25T08:46:57;94705.84;;;12.22;64.71
15007;BME280;7599;50.748;13.142;2023-03-25T08:50:01;94693.19;;;12.24;64.68
15007;BME280;7599;50.748;13.142;2023-03-25T08:53:04;94704.28;;;12.26;64.76
15007;BME280;7599;50.748;13.142;2023-03-25T08:56:40;94701.09;;;12.24;64.59
15007;BME280;7599;50.748;13.142;2023-03-25T08:59:43;94708.22;;;12.24;64.52
15007;BME280;7599;50.748;13.142;2023-03-25T09:02:46;94699.25;;;12.25;64.37
15007;BME280;7599;50.748;13.142;2023-03-25T09:05:50;94706.38;;;12.24;64.83
15007;BME280;7599;50.748;13.142;2023-03-25T09:08:53;94712.69;;;12.23;64.63
15007;BME280;7599;50.748;13.142;2023-03-25T09:11:56;94709.00;;;12.24;64.30
15007;BME280;7599;50.748;13.142;2023-03-25T09:15:00;94721.66;;;12.22;64.37
15007;BME280;7599;50.748;13.142;2023-03-25T09:18:02;94720.34;;;12.25;64.41
15007;BME280;7599;50.748;13.142;2023-03-25T09:21:07;94721.16;;;12.25;64.51
15007;BME280;7599;50.748;13.142;2023-03-25T09:24:10;94724.03;;;12.24;64.89
15007;BME280;7599;50.748;13.142;2023-03-25T09:27:14;94718.78;;;12.24;64.76
15007;BME280;7599;50.748;13.142;2023-03-25T09:30:17;94714.28;;;12.24;64.62
15007;BME280;7599;50.748;13.142;2023-03-25T09:33:19;94715.06;;;12.25;64.89
15007;BME280;7599;50.748;13.142;2023-03-25T09:36:23;94712.44;;;12.25;64.92
15007;BME280;7599;50.748;13.142;2023-03-25T09:39:26;94702.94;;;12.24;64.65
15007;BME280;7599;50.748;13.142;2023-03-25T09:42:49;94717.47;;;12.26;64.39
15007;BME280;7599;50.748;13.142;2023-03-25T09:45:57;94704.28;;;12.26;64.79
15007;BME280;7599;50.748;13.142;2023-03-25T09:49:01;94712.44;;;12.25;64.26
15007;BME280;7599;50.748;13.142;2023-03-25T09:52:11;94716.41;;;12.27;64.44
15007;BME280;7599;50.748;13.142;2023-03-25T09:55:22;94729.06;;;12.25;64.58
15007;BME280;7599;50.748;13.142;2023-03-25T09:58:33;94719.81;;;12.23;64.16
15007;BME280;7599;50.748;13.142;2023-03-25T10:01:42;94712.97;;;12.22;64.32
15007;BME280;7599;50.748;13.142;2023-03-25T10:05:04;94716.38;;;12.22;64.18
15007;BME280;7599;50.748;13.142;2023-03-25T10:08:24;94707.16;;;12.25;64.65
15007;BME280;7599;50.748;13.142;2023-03-25T10:11:37;94710.31;;;12.22;64.30
15007;BME280;7599;50.748;13.142;2023-03-25T10:14:54;94708.22;;;12.24;64.23
15007;BME280;7599;50.748;13.142;2023-03-25T10:18:14;94715.88;;;12.25;64.04
15007;BME280;7599;50.748;13.142;2023-03-25T10:21:23;94706.13;;;12.26;64.28
15007;BME280;7599;50.748;13.142;2023-03-25T10:24:33;94698.47;;;12.24;64.64
15007;BME280;7599;50.748;13.142;2023-03-25T10:27:41;94693.72;;;12.26;64.08
15007;BME280;7599;50.748;13.142;2023-03-25T10:30:48;94692.66;;;12.22;64.37
15007;BME280;7599;50.748;13.142;2023-03-25T10:33:54;94711.38;;;12.21;64.49
15007;BME280;7599;50.748;13.142;2023-03-25T10:37:01;94704.25;;;12.21;64.73
15007;BME280;7599;50.748;13.142;2023-03-25T10:40:14;94697.13;;;12.22;65.05
15007;BME280;7599;50.748;13.142;2023-03-25T10:43:33;94698.19;;;12.21;64.93
15007;BME280;7599;50.748;13.142;2023-03-25T10:46:40;94705.03;;;12.22;65.11
15007;BME280;7599;50.748;13.142;2023-03-25T10:49:48;94698.97;;;12.21;65.11
15007;BME280;7599;50.748;13.142;2023-03-25T10:52:52;94695.56;;;12.21;64.89
15007;BME280;7599;50.748;13.142;2023-03-25T10:56:02;94691.88;;;12.22;64.82
15007;BME280;7599;50.748;13.142;2023-03-25T10:59:16;94695.28;;;12.22;64.76
15007;BME280;7599;50.748;13.142;2023-03-25T11:02:22;94687.13;;;12.24;65.26
15007;BME280;7599;50.748;13.142;2023-03-25T11:05:27;94685.28;;;12.24;65.13
15007;BME280;7599;50.748;13.142;2023-03-25T11:08:30;94684.22;;;12.25;65.03
15007;BME280;7599;50.748;13.142;2023-03-25T11:11:35;94697.94;;;12.32;64.56
15007;BME280;7599;50.748;13.142;2023-03-25T11:14:38;94690.31;;;12.36;64.18
15007;BME280;7599;50.748;13.142;2023-03-25T11:17:43;94696.63;;;12.35;64.49
15007;BME280;7599;50.748;13.142;2023-03-25T11:20:48;94685.28;;;12.34;64.73
15007;BME280;7599;50.748;13.142;2023-03-25T11:23:51;94701.38;;;12.33;64.75
15007;BME280;7599;50.748;13.142;2023-03-25T11:26:55;94688.19;;;12.33;64.92
15007;BME280;7599;50.748;13.142;2023-03-25T11:30:00;94687.66;;;12.31;64.96
15007;BME280;7599;50.748;13.142;2023-03-25T11:33:06;94686.34;;;12.28;64.91
15007;BME280;7599;50.748;13.142;2023-03-25T11:36:21;94676.84;;;12.27;64.80
15007;BME280;7599;50.748;13.142;2023-03-25T11:39:28;94685.81;;;12.26;64.97
15007;BME280;7599;50.748;13.142;2023-03-25T11:42:39;94672.63;;;12.26;65.18
15007;BME280;7599;50.748;13.142;2023-03-25T11:45:43;94664.72;;;12.26;64.84
15007;BME280;7599;50.748;13.142;2023-03-25T11:48:47;94665.78;;;12.25;65.08
15007;BME280;7599;50.748;13.142;2023-03-25T11:51:56;94654.44;;;12.25;65.16
15007;BME280;7599;50.748;13.142;2023-03-25T11:55:01;94657.06;;;12.25;64.75
15007;BME280;7599;50.748;13.142;2023-03-25T11:58:06;94644.41;;;12.27;64.72
15007;BME280;7599;50.748;13.142;2023-03-25T12:01:23;94658.38;;;12.22;64.77
15007;BME280;7599;50.748;13.142;2023-03-25T12:04:28;94660.50;;;12.25;64.85
15007;BME280;7599;50.748;13.142;2023-03-25T12:07:40;94670.00;;;12.26;65.00
15007;BME280;7599;50.748;13.142;2023-03-25T12:10:49;94671.84;;;12.26;64.85
15007;BME280;7599;50.748;13.142;2023-03-25T12:14:12;94653.13;;;12.27;64.91
15007;BME280;7599;50.748;13.142;2023-03-25T12:17:28;94644.69;;;12.25;64.87
15007;BME280;7599;50.748;13.142;2023-03-25T12:20:40;94642.84;;;12.26;64.55
15007;BME280;7599;50.748;13.142;2023-03-25T12:23:52;94643.63;;;12.26;65.04
15007;BME280;7599;50.748;13.142;2023-03-25T12:27:08;94636.78;;;12.25;64.94
15007;BME280;7599;50.748;13.142;2023-03-25T12:30:26;94638.34;;;12.26;64.76
15007;BME280;7599;50.748;13.142;2023-03-25T12:33:40;94637.31;;;12.27;65.11
15007;BME280;7599;50.748;13.142;2023-03-25T12:36:55;94618.56;;;12.24;64.87
15007;BME280;7599;50.748;13.142;2023-03-25T12:40:22;94613.56;;;12.27;65.08
15007;BME280;7599;50.748;13.142;2023-03-25T12:43:33;94608.56;;;12.26;64.75
15007;BME280;7599;50.748;13.142;2023-03-25T12:47:00;94610.41;;;12.25;64.88
15007;BME280;7599;50.748;13.142;2023-03-25T12:50:29;94619.63;;;12.28;64.77
15007;BME280;7599;50.748;13.142;2023-03-25T13:11:13;94594.84;;;12.29;64.81
15007;BME280;7599;50.748;13.142;2023-03-25T13:14:27;94606.44;;;12.28;64.77
15007;BME280;7599;50.748;13.142;2023-03-25T13:18:17;94593.53;;;12.26;65.04
15007;BME280;7599;50.748;13.142;2023-03-25T13:30:26;94578.22;;;12.23;65.01
15007;BME280;7599;50.748;13.142;2023-03-25T13:33:39;94586.13;;;12.23;64.63
15007;BME280;7599;50.748;13.142;2023-03-25T13:36:52;94579.56;;;12.26;64.90
15007;BME280;7599;50.748;13.142;2023-03-25T13:52:59;94589.31;;;12.25;64.98
15007;BME280;7599;50.748;13.142;2023-03-25T13:56:32;94590.38;;;12.24;64.77
15007;BME280;7599;50.748;13.142;2023-03-25T14:03:39;94618.84;;;12.27;64.84
15007;BME280;7599;50.748;13.142;2023-03-25T14:07:07;94641.25;;;12.25;64.67
15007;BME280;7599;50.748;13.142;2023-03-25T14:10:47;94646.53;;;12.25;65.04
15007;BME280;7599;50.748;13.142;2023-03-25T14:13:53;94653.38;;;12.26;64.63
15007;BME280;7599;50.748;13.142;2023-03-25T14:16:59;94660.25;;;12.27;64.49
15007;BME280;7599;50.748;13.142;2023-03-25T14:20:04;94657.34;;;12.28;64.45
15007;BME280;7599;50.748;13.142;2023-03-25T14:23:12;94665.25;;;12.28;64.97
15007;BME280;7599;50.748;13.142;2023-03-25T14:26:19;94676.84;;;12.27;64.92
15007;BME280;7599;50.748;13.142;2023-03-25T14:29:31;94654.97;;;12.27;64.62
15007;BME280;7599;50.748;13.142;2023-03-25T14:32:37;94660.25;;;12.27;64.76
15007;BME280;7599;50.748;13.142;2023-03-25T14:35:47;94637.31;;;12.27;64.61
15007;BME280;7599;50.748;13.142;2023-03-25T14:38:53;94637.31;;;12.27;64.61
15007;BME280;7599;50.748;13.142;2023-03-25T14:41:58;94646.78;;;12.28;64.96
15007;BME280;7599;50.748;13.142;2023-03-25T14:45:37;94647.84;;;12.27;64.92
15007;BME280;7599;50.748;13.142;2023-03-25T14:48:43;94634.66;;;12.27;64.95
15007;BME280;7599;50.748;13.142;2023-03-25T14:51:49;94630.19;;;12.28;64.83
15007;BME280;7599;50.748;13.142;2023-03-25T14:54:52;94635.47;;;12.28;64.81
15007;BME280;7599;50.748;13.142;2023-03-25T14:58:00;94640.72;;;12.28;64.82
15007;BME280;7599;50.748;13.142;2023-03-25T15:01:07;94641.53;;;12.28;64.81
15007;BME280;7599;50.748;13.142;2023-03-25T15:04:23;94642.03;;;12.30;64.58
15007;BME280;7599;50.748;13.142;2023-03-25T15:07:40;94630.97;;;12.28;64.67
15007;BME280;7599;50.748;13.142;2023-03-25T15:10:44;94639.69;;;12.29;64.41
15007;BME280;7599;50.748;13.142;2023-03-25T15:13:54;94621.75;;;12.26;64.45
15007;BME280;7599;50.748;13.142;2023-03-25T15:17:02;94620.16;;;12.25;64.61
15007;BME280;7599;50.748;13.142;2023-03-25T15:20:25;94615.69;;;12.25;64.72
15007;BME280;7599;50.748;13.142;2023-03-25T15:23:39;94628.59;;;12.27;64.38
15007;BME280;7599;50.748;13.142;2023-03-25T15:26:43;94601.69;;;12.25;64.41
15007;BME280;7599;50.748;13.142;2023-03-25T15:30:00;94607.25;;;12.28;64.78
15007;BME280;7599;50.748;13.142;2023-03-25T15:33:15;94608.28;;;12.27;64.67
15007;BME280;7599;50.748;13.142;2023-03-25T15:36:35;94608.28;;;12.27;64.56
15007;BME280;7599;50.748;13.142;2023-03-25T15:39:53;94620.44;;;12.28;64.51
15007;BME280;7599;50.748;13.142;2023-03-25T15:50:28;94613.31;;;12.29;64.20
15007;BME280;7599;50.748;13.142;2023-03-25T15:53:45;94622.00;;;12.29;64.33
15007;BME280;7599;50.748;13.142;2023-03-25T15:56:53;94615.94;;;12.29;64.76
15007;BME280;7599;50.748;13.142;2023-03-25T16:00:01;94612.50;;;12.28;64.52
15007;BME280;7599;50.748;13.142;2023-03-25T16:03:12;94615.94;;;12.29;64.31
15007;BME280;7599;50.748;13.142;2023-03-25T16:06:18;94615.16;;;12.28;64.45
15007;BME280;7599;50.748;13.142;2023-03-25T16:09:24;94614.38;;;12.28;64.12
15007;BME280;7599;50.748;13.142;2023-03-25T16:12:29;94617.00;;;12.28;63.98
15007;BME280;7599;50.748;13.142;2023-03-25T16:15:33;94619.91;;;12.26;64.08
15007;BME280;7599;50.748;13.142;2023-03-25T16:18:38;94622.28;;;12.28;64.15
15007;BME280;7599;50.748;13.142;2023-03-25T16:21:46;94621.22;;;12.29;63.66
15007;BME280;7599;50.748;13.142;2023-03-25T16:24:50;94616.75;;;12.29;64.28
15007;BME280;7599;50.748;13.142;2023-03-25T16:27:55;94621.22;;;12.29;64.11
15007;BME280;7599;50.748;13.142;2023-03-25T16:30:58;94607.25;;;12.28;64.01
15007;BME280;7599;50.748;13.142;2023-03-25T16:34:05;94610.91;;;12.32;64.41
15007;BME280;7599;50.748;13.142;2023-03-25T16:37:10;94607.25;;;12.28;64.06
15007;BME280;7599;50.748;13.142;2023-03-25T16:40:18;94610.38;;;12.30;64.24
15007;BME280;7599;50.748;13.142;2023-03-25T16:43:24;94616.44;;;12.31;64.54
15007;BME280;7599;50.748;13.142;2023-03-25T16:46:27;94619.63;;;12.33;64.73
15007;BME280;7599;50.748;13.142;2023-03-25T16:49:32;94627.28;;;12.34;64.81
15007;BME280;7599;50.748;13.142;2023-03-25T16:52:39;94620.94;;;12.35;64.72
15007;BME280;7599;50.748;13.142;2023-03-25T16:55:44;94626.22;;;12.35;64.50
15007;BME280;7599;50.748;13.142;2023-03-25T16:58:57;94622.00;;;12.34;64.62
15007;BME280;7599;50.748;13.142;2023-03-25T17:02:02;94632.28;;;12.36;64.60
15007;BME280;7599;50.748;13.142;2023-03-25T17:05:12;94627.53;;;12.33;64.81
15007;BME280;7599;50.748;13.142;2023-03-25T17:08:19;94642.28;;;12.34;65.18
15007;BME280;7599;50.748;13.142;2023-03-25T17:11:25;94643.34;;;12.33;65.33
15007;BME280;7599;50.748;13.142;2023-03-25T17:14:30;94645.19;;;12.32;65.15
15007;BME280;7599;50.748;13.142;2023-03-25T17:17:39;94641.50;;;12.33;65.66
15007;BME280;7599;50.748;13.142;2023-03-25T17:20:45;94632.00;;;12.32;65.47
15007;BME280;7599;50.748;13.142;2023-03-25T17:23:51;94627.78;;;12.31;65.31
15007;BME280;7599;50.748;13.142;2023-03-25T17:26:55;94637.28;;;12.32;65.36